sensor_id;sensor_type;location;lat;lon;timestamp;P1;durP1;ratioP1;P2;durP2;ratioP2
2686;SDS011;1353;51.386;7.028;2022-09-21T00:01:21;7.73;;;5.80;;
2686;SDS011;1353;51.386;7.028;2022-09-21T00:03:51;5.33;;;4.40;;
2686;SDS011;1353;51.386;7.028;2022-09-21T00:06:19;6.63;;;4.27;;
2686;SDS011;1353;51.386;7.028;2022-09-21T00:08:48;6.20;;;5.17;;
2686;SDS011;1353;51.386;7.028;2022-09-21T00:11:17;8.43;;;4.87;;
2686;SDS011;1353;51.386;7.028;2022-09-21T00:13:50;3.87;;;3.57;;
2686;SDS011;1353;51.386;7.028;2022-09-21T00:16:18;8.87;;;4.40;;
2686;SDS011;1353;51.386;7.028;2022-09-21T00:18:45;4.32;;;3.75;;
2686;SDS011;1353;51.386;7.028;2022-09-21T00:21:13;6.47;;;4.30;;
2686;SDS011;1353;51.386;7.028;2022-09-21T00:23:42;5.17;;;4.20;;
2686;SDS011;1353;51.386;7.028;2022-09-21T00:26:12;13.40;;;4.37;;
2686;SDS011;1353;51.386;7.028;2022-09-21T00:28:39;6.60;;;4.17;;
2686;SDS011;1353;51.386;7.028;2022-09-21T00:31:07;3.83;;;3.47;;
2686;SDS011;1353;51.386;7.028;2022-09-21T00:33:36;4.00;;;3.37;;
2686;SDS011;1353;51.386;7.028;2022-09-21T00:36:03;5.90;;;3.53;;
2686;SDS011;1353;51.386;7.028;2022-09-21T00:38:31;4.03;;;3.20;;
2686;SDS011;1353;51.386;7.028;2022-09-21T00:40:58;5.95;;;3.25;;
2686;SDS011;1353;51.386;7.028;2022-09-21T00:43:26;8.37;;;4.23;;
2686;SDS011;1353;51.386;7.028;2022-09-21T00:45:54;6.60;;;3.70;;
2686;SDS011;1353;51.386;7.028;2022-09-21T00:48:25;4.90;;;3.20;;
2686;SDS011;1353;51.386;7.028;2022-09-21T00:50:52;4.68;;;3.20;;
2686;SDS011;1353;51.386;7.028;2022-09-21T00:53:22;4.78;;;4.05;;
2686;SDS011;1353;51.386;7.028;2022-09-21T00:55:49;5.18;;;3.80;;
2686;SDS011;1353;51.386;7.028;2022-09-21T00:58:21;9.07;;;4.20;;
2686;SDS011;1353;51.386;7.028;2022-09-21T01:00:53;4.50;;;3.90;;
2686;SDS011;1353;51.386;7.028;2022-09-21T01:03:20;5.70;;;4.40;;
2686;SDS011;1353;51.386;7.028;2022-09-21T01:05:46;6.60;;;3.70;;
2686;SDS011;1353;51.386;7.028;2022-09-21T01:08:13;4.88;;;3.45;;
2686;SDS011;1353;51.386;7.028;2022-09-21T01:10:45;7.82;;;4.70;;
2686;SDS011;1353;51.386;7.028;2022-09-21T01:13:40;4.20;;;3.50;;
2686;SDS011;1353;51.386;7.028;2022-09-21T01:16:17;5.37;;;4.27;;
2686;SDS011;1353;51.386;7.028;2022-09-21T01:18:50;4.28;;;3.78;;
2686;SDS011;1353;51.386;7.028;2022-09-21T01:21:22;4.28;;;3.88;;
2686;SDS011;1353;51.386;7.028;2022-09-21T01:26:55;7.93;;;3.67;;
2686;SDS011;1353;51.386;7.028;2022-09-21T01:29:44;10.63;;;4.20;;
2686;SDS011;1353;51.386;7.028;2022-09-21T01:32:15;6.10;;;3.80;;
2686;SDS011;1353;51.386;7.028;2022-09-21T01:34:48;3.42;;;3.13;;
2686;SDS011;1353;51.386;7.028;2022-09-21T01:37:19;7.65;;;4.00;;
2686;SDS011;1353;51.386;7.028;2022-09-21T01:39:50;9.03;;;3.60;;
2686;SDS011;1353;51.386;7.028;2022-09-21T01:42:20;2.83;;;2.60;;
2686;SDS011;1353;51.386;7.028;2022-09-21T01:44:49;4.32;;;3.55;;
2686;SDS011;1353;51.386;7.028;2022-09-21T01:47:16;4.80;;;4.25;;
2686;SDS011;1353;51.386;7.028;2022-09-21T01:49:45;4.23;;;3.37;;
2686;SDS011;1353;51.386;7.028;2022-09-21T01:52:17;4.93;;;3.40;;
2686;SDS011;1353;51.386;7.028;2022-09-21T01:54:47;6.40;;;3.72;;
2686;SDS011;1353;51.386;7.028;2022-09-21T01:57:18;3.70;;;3.40;;
2686;SDS011;1353;51.386;7.028;2022-09-21T01:59:51;4.97;;;3.15;;
2686;SDS011;1353;51.386;7.028;2022-09-21T02:02:22;4.10;;;3.35;;
2686;SDS011;1353;51.386;7.028;2022-09-21T02:04:56;5.70;;;3.35;;
2686;SDS011;1353;51.386;7.028;2022-09-21T02:07:25;7.30;;;2.92;;
2686;SDS011;1353;51.386;7.028;2022-09-21T02:09:52;4.68;;;3.63;;
2686;SDS011;1353;51.386;7.028;2022-09-21T02:12:20;7.18;;;3.88;;
2686;SDS011;1353;51.386;7.028;2022-09-21T02:14:47;5.77;;;3.53;;
2686;SDS011;1353;51.386;7.028;2022-09-21T02:17:19;8.02;;;4.38;;
2686;SDS011;1353;51.386;7.028;2022-09-21T02:19:56;10.35;;;4.18;;
2686;SDS011;1353;51.386;7.028;2022-09-21T02:22:33;6.55;;;4.35;;
2686;SDS011;1353;51.386;7.028;2022-09-21T02:25:06;10.50;;;4.28;;
2686;SDS011;1353;51.386;7.028;2022-09-21T02:27:39;8.60;;;4.10;;
2686;SDS011;1353;51.386;7.028;2022-09-21T02:30:13;11.13;;;3.80;;
2686;SDS011;1353;51.386;7.028;2022-09-21T02:32:44;5.87;;;3.40;;
2686;SDS011;1353;51.386;7.028;2022-09-21T02:35:20;4.70;;;3.97;;
2686;SDS011;1353;51.386;7.028;2022-09-21T02:37:58;9.67;;;5.27;;
2686;SDS011;1353;51.386;7.028;2022-09-21T02:40:32;7.20;;;4.40;;
2686;SDS011;1353;51.386;7.028;2022-09-21T02:43:04;8.80;;;5.07;;
2686;SDS011;1353;51.386;7.028;2022-09-21T02:45:37;8.25;;;4.32;;
2686;SDS011;1353;51.386;7.028;2022-09-21T02:48:10;7.07;;;4.50;;
2686;SDS011;1353;51.386;7.028;2022-09-21T02:50:42;6.97;;;4.20;;
2686;SDS011;1353;51.386;7.028;2022-09-21T02:53:12;7.35;;;3.95;;
2686;SDS011;1353;51.386;7.028;2022-09-21T02:55:42;6.07;;;3.95;;
2686;SDS011;1353;51.386;7.028;2022-09-21T02:58:11;9.00;;;4.07;;
2686;SDS011;1353;51.386;7.028;2022-09-21T03:00:41;6.75;;;3.95;;
2686;SDS011;1353;51.386;7.028;2022-09-21T03:03:16;7.40;;;4.30;;
2686;SDS011;1353;51.386;7.028;2022-09-21T03:05:45;7.10;;;4.57;;
2686;SDS011;1353;51.386;7.028;2022-09-21T03:08:14;7.10;;;4.30;;
2686;SDS011;1353;51.386;7.028;2022-09-21T03:10:41;6.00;;;4.47;;
2686;SDS011;1353;51.386;7.028;2022-09-21T03:13:08;6.93;;;4.30;;
2686;SDS011;1353;51.386;7.028;2022-09-21T03:15:35;7.88;;;4.45;;
2686;SDS011;1353;51.386;7.028;2022-09-21T03:18:02;12.10;;;4.95;;
2686;SDS011;1353;51.386;7.028;2022-09-21T03:20:32;6.32;;;5.05;;
2686;SDS011;1353;51.386;7.028;2022-09-21T03:22:59;5.78;;;4.25;;
2686;SDS011;1353;51.386;7.028;2022-09-21T03:25:26;7.60;;;5.15;;
2686;SDS011;1353;51.386;7.028;2022-09-21T03:27:54;8.23;;;4.07;;
2686;SDS011;1353;51.386;7.028;2022-09-21T03:30:21;5.18;;;4.68;;
2686;SDS011;1353;51.386;7.028;2022-09-21T03:32:47;9.98;;;4.75;;
2686;SDS011;1353;51.386;7.028;2022-09-21T03:35:15;10.23;;;4.80;;
2686;SDS011;1353;51.386;7.028;2022-09-21T03:37:43;7.97;;;5.40;;
2686;SDS011;1353;51.386;7.028;2022-09-21T03:40:11;5.95;;;5.20;;
2686;SDS011;1353;51.386;7.028;2022-09-21T03:42:37;12.63;;;5.10;;
2686;SDS011;1353;51.386;7.028;2022-09-21T03:45:05;5.55;;;4.93;;
2686;SDS011;1353;51.386;7.028;2022-09-21T03:47:34;11.15;;;5.10;;
2686;SDS011;1353;51.386;7.028;2022-09-21T03:50:00;14.77;;;5.50;;
2686;SDS011;1353;51.386;7.028;2022-09-21T03:52:27;11.85;;;6.35;;
2686;SDS011;1353;51.386;7.028;2022-09-21T03:54:55;7.45;;;5.82;;
2686;SDS011;1353;51.386;7.028;2022-09-21T03:57:22;8.43;;;5.82;;
2686;SDS011;1353;51.386;7.028;2022-09-21T03:59:49;6.05;;;5.35;;
2686;SDS011;1353;51.386;7.028;2022-09-21T04:02:16;6.53;;;5.53;;
2686;SDS011;1353;51.386;7.028;2022-09-21T04:04:42;12.38;;;6.25;;
2686;SDS011;1353;51.386;7.028;2022-09-21T04:07:09;7.07;;;5.75;;
2686;SDS011;1353;51.386;7.028;2022-09-21T04:09:36;11.43;;;5.63;;
2686;SDS011;1353;51.386;7.028;2022-09-21T04:12:04;8.90;;;5.97;;
2686;SDS011;1353;51.386;7.028;2022-09-21T04:14:31;6.93;;;5.80;;
2686;SDS011;1353;51.386;7.028;2022-09-21T04:16:58;6.60;;;5.40;;
2686;SDS011;1353;51.386;7.028;2022-09-21T04:19:24;12.85;;;7.03;;
2686;SDS011;1353;51.386;7.028;2022-09-21T04:21:51;11.43;;;6.55;;
2686;SDS011;1353;51.386;7.028;2022-09-21T04:24:20;11.35;;;7.20;;
2686;SDS011;1353;51.386;7.028;2022-09-21T04:26:46;9.68;;;6.55;;
2686;SDS011;1353;51.386;7.028;2022-09-21T04:29:15;9.63;;;6.65;;
2686;SDS011;1353;51.386;7.028;2022-09-21T04:31:41;9.77;;;5.32;;
2686;SDS011;1353;51.386;7.028;2022-09-21T04:34:08;17.13;;;6.25;;
2686;SDS011;1353;51.386;7.028;2022-09-21T04:36:38;8.90;;;5.47;;
2686;SDS011;1353;51.386;7.028;2022-09-21T04:39:05;12.05;;;6.70;;
2686;SDS011;1353;51.386;7.028;2022-09-21T04:41:32;15.50;;;7.25;;
2686;SDS011;1353;51.386;7.028;2022-09-21T04:43:59;12.15;;;6.53;;
2686;SDS011;1353;51.386;7.028;2022-09-21T04:46:27;7.40;;;6.60;;
2686;SDS011;1353;51.386;7.028;2022-09-21T04:48:54;9.68;;;7.30;;
2686;SDS011;1353;51.386;7.028;2022-09-21T04:51:21;15.77;;;6.20;;
2686;SDS011;1353;51.386;7.028;2022-09-21T04:53:48;8.68;;;6.00;;
2686;SDS011;1353;51.386;7.028;2022-09-21T04:56:15;13.88;;;6.35;;
2686;SDS011;1353;51.386;7.028;2022-09-21T04:58:42;10.13;;;5.03;;
2686;SDS011;1353;51.386;7.028;2022-09-21T05:01:09;7.22;;;5.30;;
2686;SDS011;1353;51.386;7.028;2022-09-21T05:03:38;11.55;;;6.30;;
2686;SDS011;1353;51.386;7.028;2022-09-21T05:06:04;8.13;;;5.70;;
2686;SDS011;1353;51.386;7.028;2022-09-21T05:08:31;10.25;;;5.88;;
2686;SDS011;1353;51.386;7.028;2022-09-21T05:11:17;9.82;;;5.43;;
2686;SDS011;1353;51.386;7.028;2022-09-21T05:13:44;7.85;;;5.53;;
2686;SDS011;1353;51.386;7.028;2022-09-21T05:16:11;10.15;;;5.85;;
2686;SDS011;1353;51.386;7.028;2022-09-21T05:18:40;10.10;;;5.90;;
2686;SDS011;1353;51.386;7.028;2022-09-21T05:21:08;8.40;;;5.30;;
2686;SDS011;1353;51.386;7.028;2022-09-21T05:23:36;7.28;;;5.68;;
2686;SDS011;1353;51.386;7.028;2022-09-21T05:26:03;12.80;;;6.13;;
2686;SDS011;1353;51.386;7.028;2022-09-21T05:28:31;13.00;;;7.15;;
2686;SDS011;1353;51.386;7.028;2022-09-21T05:30:59;23.50;;;7.35;;
2686;SDS011;1353;51.386;7.028;2022-09-21T05:33:29;14.85;;;7.22;;
2686;SDS011;1353;51.386;7.028;2022-09-21T05:36:02;18.23;;;7.57;;
2686;SDS011;1353;51.386;7.028;2022-09-21T05:38:35;12.23;;;8.23;;
2686;SDS011;1353;51.386;7.028;2022-09-21T05:41:02;14.00;;;7.95;;
2686;SDS011;1353;51.386;7.028;2022-09-21T05:43:30;12.13;;;6.90;;
2686;SDS011;1353;51.386;7.028;2022-09-21T05:45:59;16.42;;;9.75;;
2686;SDS011;1353;51.386;7.028;2022-09-21T05:48:31;15.30;;;10.00;;
2686;SDS011;1353;51.386;7.028;2022-09-21T05:51:08;21.13;;;11.67;;
2686;SDS011;1353;51.386;7.028;2022-09-21T05:53:42;17.70;;;11.50;;
2686;SDS011;1353;51.386;7.028;2022-09-21T05:56:18;12.10;;;7.90;;
2686;SDS011;1353;51.386;7.028;2022-09-21T05:58:55;9.90;;;6.73;;
2686;SDS011;1353;51.386;7.028;2022-09-21T06:01:33;11.43;;;7.97;;
2686;SDS011;1353;51.386;7.028;2022-09-21T06:04:07;13.47;;;8.10;;
2686;SDS011;1353;51.386;7.028;2022-09-21T06:06:38;18.33;;;7.60;;
2686;SDS011;1353;51.386;7.028;2022-09-21T06:09:04;11.83;;;6.70;;
2686;SDS011;1353;51.386;7.028;2022-09-21T06:11:32;10.83;;;6.30;;
2686;SDS011;1353;51.386;7.028;2022-09-21T06:13:59;8.83;;;7.73;;
2686;SDS011;1353;51.386;7.028;2022-09-21T06:16:26;7.00;;;6.30;;
2686;SDS011;1353;51.386;7.028;2022-09-21T06:18:52;7.20;;;5.90;;
2686;SDS011;1353;51.386;7.028;2022-09-21T06:21:19;10.27;;;7.87;;
2686;SDS011;1353;51.386;7.028;2022-09-21T06:23:47;10.03;;;8.30;;
2686;SDS011;1353;51.386;7.028;2022-09-21T06:26:14;15.27;;;9.63;;
2686;SDS011;1353;51.386;7.028;2022-09-21T06:28:41;12.40;;;9.57;;
2686;SDS011;1353;51.386;7.028;2022-09-21T06:31:08;23.57;;;9.57;;
2686;SDS011;1353;51.386;7.028;2022-09-21T06:33:35;13.60;;;9.30;;
2686;SDS011;1353;51.386;7.028;2022-09-21T06:36:02;14.43;;;9.13;;
2686;SDS011;1353;51.386;7.028;2022-09-21T06:38:29;8.83;;;7.37;;
2686;SDS011;1353;51.386;7.028;2022-09-21T06:41:00;7.30;;;6.60;;
2686;SDS011;1353;51.386;7.028;2022-09-21T06:43:28;6.33;;;5.60;;
2686;SDS011;1353;51.386;7.028;2022-09-21T06:45:55;5.30;;;4.80;;
2686;SDS011;1353;51.386;7.028;2022-09-21T06:48:23;7.23;;;5.30;;
2686;SDS011;1353;51.386;7.028;2022-09-21T06:50:55;6.20;;;4.87;;
2686;SDS011;1353;51.386;7.028;2022-09-21T06:53:23;6.40;;;5.80;;
2686;SDS011;1353;51.386;7.028;2022-09-21T06:55:50;6.07;;;5.50;;
2686;SDS011;1353;51.386;7.028;2022-09-21T06:58:18;5.50;;;4.83;;
2686;SDS011;1353;51.386;7.028;2022-09-21T07:00:45;7.80;;;4.80;;
2686;SDS011;1353;51.386;7.028;2022-09-21T07:03:12;5.57;;;5.00;;
2686;SDS011;1353;51.386;7.028;2022-09-21T07:05:38;5.37;;;4.87;;
2686;SDS011;1353;51.386;7.028;2022-09-21T07:08:05;5.13;;;4.60;;
2686;SDS011;1353;51.386;7.028;2022-09-21T07:10:32;5.60;;;5.10;;
2686;SDS011;1353;51.386;7.028;2022-09-21T07:13:18;5.00;;;4.30;;
2686;SDS011;1353;51.386;7.028;2022-09-21T07:15:45;4.83;;;4.43;;
2686;SDS011;1353;51.386;7.028;2022-09-21T07:18:12;5.83;;;4.83;;
2686;SDS011;1353;51.386;7.028;2022-09-21T07:20:40;5.07;;;4.60;;
2686;SDS011;1353;51.386;7.028;2022-09-21T07:23:10;4.73;;;4.23;;
2686;SDS011;1353;51.386;7.028;2022-09-21T07:25:39;5.27;;;4.60;;
2686;SDS011;1353;51.386;7.028;2022-09-21T07:28:06;8.90;;;4.90;;
2686;SDS011;1353;51.386;7.028;2022-09-21T07:30:34;5.03;;;4.17;;
2686;SDS011;1353;51.386;7.028;2022-09-21T07:33:01;4.03;;;3.70;;
2686;SDS011;1353;51.386;7.028;2022-09-21T07:35:28;5.13;;;4.57;;
2686;SDS011;1353;51.386;7.028;2022-09-21T07:37:56;5.03;;;4.53;;
2686;SDS011;1353;51.386;7.028;2022-09-21T07:40:23;7.63;;;3.87;;
2686;SDS011;1353;51.386;7.028;2022-09-21T07:42:50;3.73;;;3.10;;
2686;SDS011;1353;51.386;7.028;2022-09-21T07:45:17;6.27;;;4.20;;
2686;SDS011;1353;51.386;7.028;2022-09-21T07:47:45;6.30;;;4.23;;
2686;SDS011;1353;51.386;7.028;2022-09-21T07:50:11;5.67;;;4.10;;
2686;SDS011;1353;51.386;7.028;2022-09-21T07:52:38;5.37;;;3.77;;
2686;SDS011;1353;51.386;7.028;2022-09-21T07:55:05;5.10;;;3.67;;
2686;SDS011;1353;51.386;7.028;2022-09-21T07:57:33;4.27;;;3.87;;
2686;SDS011;1353;51.386;7.028;2022-09-21T08:00:17;5.60;;;4.13;;
2686;SDS011;1353;51.386;7.028;2022-09-21T08:02:45;4.57;;;3.40;;
2686;SDS011;1353;51.386;7.028;2022-09-21T08:05:12;6.13;;;3.50;;
2686;SDS011;1353;51.386;7.028;2022-09-21T08:07:39;4.20;;;2.73;;
2686;SDS011;1353;51.386;7.028;2022-09-21T08:10:06;4.27;;;3.63;;
2686;SDS011;1353;51.386;7.028;2022-09-21T08:12:34;6.60;;;3.27;;
2686;SDS011;1353;51.386;7.028;2022-09-21T08:15:00;3.77;;;2.90;;
2686;SDS011;1353;51.386;7.028;2022-09-21T08:17:27;4.20;;;2.80;;
2686;SDS011;1353;51.386;7.028;2022-09-21T08:19:55;4.13;;;2.33;;
2686;SDS011;1353;51.386;7.028;2022-09-21T08:22:22;5.70;;;3.57;;
2686;SDS011;1353;51.386;7.028;2022-09-21T08:24:50;2.67;;;1.80;;
2686;SDS011;1353;51.386;7.028;2022-09-21T08:27:17;4.83;;;1.57;;
2686;SDS011;1353;51.386;7.028;2022-09-21T08:29:44;6.00;;;2.07;;
2686;SDS011;1353;51.386;7.028;2022-09-21T08:32:12;2.43;;;1.23;;
2686;SDS011;1353;51.386;7.028;2022-09-21T08:34:38;2.80;;;1.90;;
2686;SDS011;1353;51.386;7.028;2022-09-21T08:37:06;1.50;;;1.40;;
2686;SDS011;1353;51.386;7.028;2022-09-21T08:39:33;3.30;;;1.20;;
2686;SDS011;1353;51.386;7.028;2022-09-21T08:42:15;4.40;;;1.30;;
2686;SDS011;1353;51.386;7.028;2022-09-21T08:44:59;2.47;;;1.27;;
2686;SDS011;1353;51.386;7.028;2022-09-21T08:47:34;1.73;;;1.10;;
2686;SDS011;1353;51.386;7.028;2022-09-21T08:50:04;2.10;;;0.90;;
2686;SDS011;1353;51.386;7.028;2022-09-21T08:52:46;2.23;;;0.90;;
2686;SDS011;1353;51.386;7.028;2022-09-21T08:55:15;2.10;;;0.90;;
2686;SDS011;1353;51.386;7.028;2022-09-21T08:57:43;2.17;;;1.00;;
2686;SDS011;1353;51.386;7.028;2022-09-21T09:00:12;1.47;;;0.90;;
2686;SDS011;1353;51.386;7.028;2022-09-21T09:02:48;3.20;;;1.10;;
2686;SDS011;1353;51.386;7.028;2022-09-21T09:05:42;3.40;;;0.90;;
2686;SDS011;1353;51.386;7.028;2022-09-21T09:11:23;2.60;;;0.87;;
2686;SDS011;1353;51.386;7.028;2022-09-21T09:14:04;2.90;;;0.90;;
2686;SDS011;1353;51.386;7.028;2022-09-21T09:16:45;4.00;;;0.90;;
2686;SDS011;1353;51.386;7.028;2022-09-21T09:19:19;2.10;;;1.10;;
2686;SDS011;1353;51.386;7.028;2022-09-21T09:21:53;4.73;;;0.90;;
2686;SDS011;1353;51.386;7.028;2022-09-21T09:24:26;3.50;;;0.83;;
2686;SDS011;1353;51.386;7.028;2022-09-21T09:27:00;2.83;;;1.13;;
2686;SDS011;1353;51.386;7.028;2022-09-21T09:29:32;2.10;;;1.30;;
2686;SDS011;1353;51.386;7.028;2022-09-21T09:32:07;3.73;;;1.07;;
2686;SDS011;1353;51.386;7.028;2022-09-21T09:34:39;2.50;;;0.93;;
2686;SDS011;1353;51.386;7.028;2022-09-21T09:37:09;4.23;;;1.10;;
2686;SDS011;1353;51.386;7.028;2022-09-21T09:39:37;4.23;;;1.10;;
2686;SDS011;1353;51.386;7.028;2022-09-21T09:45:11;5.27;;;1.17;;
2686;SDS011;1353;51.386;7.028;2022-09-21T09:47:53;3.27;;;1.17;;
2686;SDS011;1353;51.386;7.028;2022-09-21T09:50:29;5.47;;;1.40;;
2686;SDS011;1353;51.386;7.028;2022-09-21T09:53:01;2.40;;;1.07;;
2686;SDS011;1353;51.386;7.028;2022-09-21T09:55:34;2.53;;;1.27;;
2686;SDS011;1353;51.386;7.028;2022-09-21T09:58:04;5.50;;;1.33;;
2686;SDS011;1353;51.386;7.028;2022-09-21T10:00:38;1.80;;;1.00;;
2686;SDS011;1353;51.386;7.028;2022-09-21T10:03:07;4.00;;;1.07;;
2686;SDS011;1353;51.386;7.028;2022-09-21T10:05:42;3.80;;;0.93;;
2686;SDS011;1353;51.386;7.028;2022-09-21T10:08:25;1.50;;;0.80;;
2686;SDS011;1353;51.386;7.028;2022-09-21T10:10:54;3.00;;;1.00;;
2686;SDS011;1353;51.386;7.028;2022-09-21T10:13:22;2.60;;;0.90;;
2686;SDS011;1353;51.386;7.028;2022-09-21T10:15:54;1.10;;;0.80;;
2686;SDS011;1353;51.386;7.028;2022-09-21T10:18:25;3.00;;;0.90;;
2686;SDS011;1353;51.386;7.028;2022-09-21T10:21:20;3.67;;;1.23;;
2686;SDS011;1353;51.386;7.028;2022-09-21T10:23:49;6.27;;;1.27;;
2686;SDS011;1353;51.386;7.028;2022-09-21T10:26:18;0.97;;;0.67;;
2686;SDS011;1353;51.386;7.028;2022-09-21T10:28:55;2.60;;;1.10;;
2686;SDS011;1353;51.386;7.028;2022-09-21T10:31:25;2.57;;;1.33;;
2686;SDS011;1353;51.386;7.028;2022-09-21T10:33:54;3.07;;;0.70;;
2686;SDS011;1353;51.386;7.028;2022-09-21T10:36:32;2.93;;;1.00;;
2686;SDS011;1353;51.386;7.028;2022-09-21T10:39:16;2.20;;;1.00;;
2686;SDS011;1353;51.386;7.028;2022-09-21T10:41:48;6.07;;;1.60;;
2686;SDS011;1353;51.386;7.028;2022-09-21T10:44:18;6.30;;;1.70;;
2686;SDS011;1353;51.386;7.028;2022-09-21T10:46:48;2.40;;;0.90;;
2686;SDS011;1353;51.386;7.028;2022-09-21T10:49:19;3.50;;;0.90;;
2686;SDS011;1353;51.386;7.028;2022-09-21T10:51:50;1.23;;;0.83;;
2686;SDS011;1353;51.386;7.028;2022-09-21T10:54:20;1.90;;;1.13;;
2686;SDS011;1353;51.386;7.028;2022-09-21T10:56:54;1.50;;;1.17;;
2686;SDS011;1353;51.386;7.028;2022-09-21T10:59:25;1.23;;;0.80;;
2686;SDS011;1353;51.386;7.028;2022-09-21T11:01:55;2.20;;;0.90;;
2686;SDS011;1353;51.386;7.028;2022-09-21T11:04:28;3.90;;;0.80;;
2686;SDS011;1353;51.386;7.028;2022-09-21T11:07:01;2.47;;;1.30;;
2686;SDS011;1353;51.386;7.028;2022-09-21T11:09:37;3.73;;;1.10;;
2686;SDS011;1353;51.386;7.028;2022-09-21T11:12:11;2.77;;;1.00;;
2686;SDS011;1353;51.386;7.028;2022-09-21T11:14:52;1.77;;;0.90;;
2686;SDS011;1353;51.386;7.028;2022-09-21T11:17:27;0.83;;;0.60;;
2686;SDS011;1353;51.386;7.028;2022-09-21T11:20:04;2.30;;;0.80;;
2686;SDS011;1353;51.386;7.028;2022-09-21T11:22:40;3.43;;;1.47;;
2686;SDS011;1353;51.386;7.028;2022-09-21T11:25:18;3.83;;;0.90;;
2686;SDS011;1353;51.386;7.028;2022-09-21T11:27:53;2.30;;;0.83;;
2686;SDS011;1353;51.386;7.028;2022-09-21T11:30:25;3.37;;;0.90;;
2686;SDS011;1353;51.386;7.028;2022-09-21T11:33:09;2.37;;;0.70;;
2686;SDS011;1353;51.386;7.028;2022-09-21T11:35:47;2.40;;;1.53;;
2686;SDS011;1353;51.386;7.028;2022-09-21T11:38:29;2.43;;;0.90;;
2686;SDS011;1353;51.386;7.028;2022-09-21T11:41:10;1.40;;;0.70;;
2686;SDS011;1353;51.386;7.028;2022-09-21T11:43:52;2.30;;;0.83;;
2686;SDS011;1353;51.386;7.028;2022-09-21T11:46:29;3.03;;;0.80;;
2686;SDS011;1353;51.386;7.028;2022-09-21T11:49:11;2.73;;;0.93;;
2686;SDS011;1353;51.386;7.028;2022-09-21T11:51:55;2.13;;;1.00;;
2686;SDS011;1353;51.386;7.028;2022-09-21T11:57:26;1.10;;;0.80;;
2686;SDS011;1353;51.386;7.028;2022-09-21T12:00:00;0.93;;;0.80;;
2686;SDS011;1353;51.386;7.028;2022-09-21T12:05:35;1.63;;;0.97;;
2686;SDS011;1353;51.386;7.028;2022-09-21T12:08:20;3.33;;;0.80;;
2686;SDS011;1353;51.386;7.028;2022-09-21T12:11:01;0.90;;;0.70;;
2686;SDS011;1353;51.386;7.028;2022-09-21T12:13:37;1.43;;;0.80;;
2686;SDS011;1353;51.386;7.028;2022-09-21T12:16:17;2.70;;;0.70;;
2686;SDS011;1353;51.386;7.028;2022-09-21T12:18:53;1.57;;;0.70;;
2686;SDS011;1353;51.386;7.028;2022-09-21T12:21:27;1.60;;;0.70;;
2686;SDS011;1353;51.386;7.028;2022-09-21T12:23:57;1.37;;;0.73;;
2686;SDS011;1353;51.386;7.028;2022-09-21T12:26:28;4.73;;;0.70;;
2686;SDS011;1353;51.386;7.028;2022-09-21T12:29:02;6.00;;;0.83;;
2686;SDS011;1353;51.386;7.028;2022-09-21T12:31:34;1.50;;;1.40;;
2686;SDS011;1353;51.386;7.028;2022-09-21T12:34:07;3.23;;;0.80;;
2686;SDS011;1353;51.386;7.028;2022-09-21T12:36:43;4.13;;;1.13;;
2686;SDS011;1353;51.386;7.028;2022-09-21T12:39:25;1.47;;;0.80;;
2686;SDS011;1353;51.386;7.028;2022-09-21T12:41:58;1.17;;;0.83;;
2686;SDS011;1353;51.386;7.028;2022-09-21T12:44:30;2.40;;;0.80;;
2686;SDS011;1353;51.386;7.028;2022-09-21T12:47:16;3.83;;;0.80;;
2686;SDS011;1353;51.386;7.028;2022-09-21T12:49:49;2.30;;;0.77;;
2686;SDS011;1353;51.386;7.028;2022-09-21T12:52:20;2.70;;;0.70;;
2686;SDS011;1353;51.386;7.028;2022-09-21T12:54:51;1.17;;;1.00;;
2686;SDS011;1353;51.386;7.028;2022-09-21T12:57:28;2.07;;;0.80;;
2686;SDS011;1353;51.386;7.028;2022-09-21T13:00:04;5.10;;;1.17;;
2686;SDS011;1353;51.386;7.028;2022-09-21T13:02:36;2.37;;;0.70;;
2686;SDS011;1353;51.386;7.028;2022-09-21T13:05:10;1.40;;;1.00;;
2686;SDS011;1353;51.386;7.028;2022-09-21T13:07:49;1.23;;;0.97;;
2686;SDS011;1353;51.386;7.028;2022-09-21T13:10:31;1.57;;;1.07;;
2686;SDS011;1353;51.386;7.028;2022-09-21T13:13:15;1.27;;;0.90;;
2686;SDS011;1353;51.386;7.028;2022-09-21T13:15:47;1.90;;;1.33;;
2686;SDS011;1353;51.386;7.028;2022-09-21T13:18:16;1.90;;;0.90;;
2686;SDS011;1353;51.386;7.028;2022-09-21T13:20:47;1.47;;;0.80;;
2686;SDS011;1353;51.386;7.028;2022-09-21T13:23:19;4.70;;;1.30;;
2686;SDS011;1353;51.386;7.028;2022-09-21T13:25:49;2.03;;;1.00;;
2686;SDS011;1353;51.386;7.028;2022-09-21T13:28:38;1.00;;;0.70;;
2686;SDS011;1353;51.386;7.028;2022-09-21T13:31:28;2.40;;;1.37;;
2686;SDS011;1353;51.386;7.028;2022-09-21T13:34:04;2.70;;;0.83;;
2686;SDS011;1353;51.386;7.028;2022-09-21T13:36:42;3.33;;;1.23;;
2686;SDS011;1353;51.386;7.028;2022-09-21T13:39:14;3.63;;;0.90;;
2686;SDS011;1353;51.386;7.028;2022-09-21T13:41:42;1.57;;;0.80;;
2686;SDS011;1353;51.386;7.028;2022-09-21T13:44:20;1.73;;;0.97;;
2686;SDS011;1353;51.386;7.028;2022-09-21T13:47:04;1.43;;;0.73;;
2686;SDS011;1353;51.386;7.028;2022-09-21T13:49:37;0.70;;;0.67;;
2686;SDS011;1353;51.386;7.028;2022-09-21T13:52:16;2.27;;;1.00;;
2686;SDS011;1353;51.386;7.028;2022-09-21T13:54:53;1.20;;;0.73;;
2686;SDS011;1353;51.386;7.028;2022-09-21T13:57:25;3.33;;;0.93;;
2686;SDS011;1353;51.386;7.028;2022-09-21T14:00:06;1.90;;;0.80;;
2686;SDS011;1353;51.386;7.028;2022-09-21T14:02:54;1.10;;;0.70;;
2686;SDS011;1353;51.386;7.028;2022-09-21T14:05:25;1.70;;;0.90;;
2686;SDS011;1353;51.386;7.028;2022-09-21T14:07:57;2.20;;;1.30;;
2686;SDS011;1353;51.386;7.028;2022-09-21T14:10:27;4.40;;;1.37;;
2686;SDS011;1353;51.386;7.028;2022-09-21T14:12:57;2.07;;;1.00;;
2686;SDS011;1353;51.386;7.028;2022-09-21T14:15:36;3.97;;;0.97;;
2686;SDS011;1353;51.386;7.028;2022-09-21T14:21:07;1.63;;;0.70;;
2686;SDS011;1353;51.386;7.028;2022-09-21T14:26:48;5.23;;;1.53;;
2686;SDS011;1353;51.386;7.028;2022-09-21T14:29:20;1.77;;;1.00;;
2686;SDS011;1353;51.386;7.028;2022-09-21T14:31:52;3.53;;;1.20;;
2686;SDS011;1353;51.386;7.028;2022-09-21T14:34:22;1.40;;;0.70;;
2686;SDS011;1353;51.386;7.028;2022-09-21T14:37:05;3.00;;;0.87;;
2686;SDS011;1353;51.386;7.028;2022-09-21T14:39:39;2.30;;;1.00;;
2686;SDS011;1353;51.386;7.028;2022-09-21T14:42:12;1.53;;;0.90;;
2686;SDS011;1353;51.386;7.028;2022-09-21T14:44:42;1.03;;;0.73;;
2686;SDS011;1353;51.386;7.028;2022-09-21T14:47:19;2.17;;;1.00;;
2686;SDS011;1353;51.386;7.028;2022-09-21T14:50:13;4.13;;;1.10;;
2686;SDS011;1353;51.386;7.028;2022-09-21T14:52:52;2.47;;;0.90;;
2686;SDS011;1353;51.386;7.028;2022-09-21T14:55:45;1.10;;;0.80;;
2686;SDS011;1353;51.386;7.028;2022-09-21T14:58:27;2.27;;;1.27;;
2686;SDS011;1353;51.386;7.028;2022-09-21T15:01:18;2.93;;;1.20;;
2686;SDS011;1353;51.386;7.028;2022-09-21T15:04:10;4.83;;;0.90;;
2686;SDS011;1353;51.386;7.028;2022-09-21T15:06:51;1.30;;;1.00;;
2686;SDS011;1353;51.386;7.028;2022-09-21T15:09:50;2.97;;;0.83;;
2686;SDS011;1353;51.386;7.028;2022-09-21T15:12:51;5.30;;;0.90;;
2686;SDS011;1353;51.386;7.028;2022-09-21T15:15:25;2.63;;;0.87;;
2686;SDS011;1353;51.386;7.028;2022-09-21T15:18:00;1.90;;;0.73;;
2686;SDS011;1353;51.386;7.028;2022-09-21T15:20:29;2.53;;;0.80;;
2686;SDS011;1353;51.386;7.028;2022-09-21T15:22:57;2.90;;;1.00;;
2686;SDS011;1353;51.386;7.028;2022-09-21T15:25:27;6.80;;;1.60;;
2686;SDS011;1353;51.386;7.028;2022-09-21T15:27:56;15.70;;;1.87;;
2686;SDS011;1353;51.386;7.028;2022-09-21T15:30:26;1.50;;;1.40;;
2686;SDS011;1353;51.386;7.028;2022-09-21T15:32:54;2.33;;;1.47;;
2686;SDS011;1353;51.386;7.028;2022-09-21T15:35:23;3.60;;;1.37;;
2686;SDS011;1353;51.386;7.028;2022-09-21T15:37:52;2.23;;;1.50;;
2686;SDS011;1353;51.386;7.028;2022-09-21T15:40:20;3.97;;;1.90;;
2686;SDS011;1353;51.386;7.028;2022-09-21T15:43:02;2.40;;;1.63;;
2686;SDS011;1353;51.386;7.028;2022-09-21T15:45:33;2.17;;;1.20;;
2686;SDS011;1353;51.386;7.028;2022-09-21T15:48:10;3.77;;;2.70;;
2686;SDS011;1353;51.386;7.028;2022-09-21T15:50:38;4.57;;;3.30;;
2686;SDS011;1353;51.386;7.028;2022-09-21T15:53:07;7.23;;;3.10;;
2686;SDS011;1353;51.386;7.028;2022-09-21T15:55:40;4.00;;;2.33;;
2686;SDS011;1353;51.386;7.028;2022-09-21T15:58:13;2.97;;;2.20;;
2686;SDS011;1353;51.386;7.028;2022-09-21T16:00:50;3.10;;;1.83;;
2686;SDS011;1353;51.386;7.028;2022-09-21T16:03:20;2.50;;;2.30;;